sensor_id;sensor_type;location;lat;lon;timestamp;P1;durP1;ratioP1;P2;durP2;ratioP2
23175;SDS011;19910;42.652;23.332;2022-08-19T00:00:08;5.93;;;4.38;;
23175;SDS011;19910;42.652;23.332;2022-08-19T00:02:39;7.20;;;4.35;;
23175;SDS011;19910;42.652;23.332;2022-08-19T00:05:07;6.18;;;4.22;;
23175;SDS011;19910;42.652;23.332;2022-08-19T00:07:35;5.20;;;4.70;;
23175;SDS011;19910;42.652;23.332;2022-08-19T00:10:04;7.75;;;4.32;;
23175;SDS011;19910;42.652;23.332;2022-08-19T00:12:33;5.50;;;3.65;;
23175;SDS011;19910;42.652;23.332;2022-08-19T00:15:01;3.95;;;3.38;;
23175;SDS011;19910;42.652;23.332;2022-08-19T00:17:28;4.20;;;3.50;;
23175;SDS011;19910;42.652;23.332;2022-08-19T00:19:55;4.93;;;3.63;;
23175;SDS011;19910;42.652;23.332;2022-08-19T00:22:22;6.70;;;4.88;;
23175;SDS011;19910;42.652;23.332;2022-08-19T00:24:52;5.10;;;3.78;;
23175;SDS011;19910;42.652;23.332;2022-08-19T00:27:20;7.45;;;3.65;;
23175;SDS011;19910;42.652;23.332;2022-08-19T00:29:47;4.68;;;3.80;;
23175;SDS011;19910;42.652;23.332;2022-08-19T00:32:14;8.73;;;4.78;;
23175;SDS011;19910;42.652;23.332;2022-08-19T00:34:40;5.72;;;4.28;;
23175;SDS011;19910;42.652;23.332;2022-08-19T00:37:08;4.28;;;3.65;;
23175;SDS011;19910;42.652;23.332;2022-08-19T00:39:36;6.30;;;3.72;;
23175;SDS011;19910;42.652;23.332;2022-08-19T00:42:02;5.70;;;3.95;;
23175;SDS011;19910;42.652;23.332;2022-08-19T00:44:33;6.20;;;4.32;;
23175;SDS011;19910;42.652;23.332;2022-08-19T00:47:00;4.97;;;3.70;;
23175;SDS011;19910;42.652;23.332;2022-08-19T00:49:27;7.00;;;3.53;;
23175;SDS011;19910;42.652;23.332;2022-08-19T00:51:58;6.93;;;3.67;;
23175;SDS011;19910;42.652;23.332;2022-08-19T00:54:28;5.32;;;3.85;;
23175;SDS011;19910;42.652;23.332;2022-08-19T00:56:56;4.70;;;3.67;;
23175;SDS011;19910;42.652;23.332;2022-08-19T00:59:24;6.78;;;3.92;;
23175;SDS011;19910;42.652;23.332;2022-08-19T01:01:53;6.63;;;4.00;;
23175;SDS011;19910;42.652;23.332;2022-08-19T01:04:20;6.13;;;4.25;;
23175;SDS011;19910;42.652;23.332;2022-08-19T01:06:47;5.38;;;3.60;;
23175;SDS011;19910;42.652;23.332;2022-08-19T01:09:14;5.45;;;4.50;;
23175;SDS011;19910;42.652;23.332;2022-08-19T01:11:41;5.35;;;4.32;;
23175;SDS011;19910;42.652;23.332;2022-08-19T01:14:10;5.43;;;3.78;;
23175;SDS011;19910;42.652;23.332;2022-08-19T01:16:39;5.85;;;3.97;;
23175;SDS011;19910;42.652;23.332;2022-08-19T01:19:12;5.32;;;3.90;;
23175;SDS011;19910;42.652;23.332;2022-08-19T01:21:47;5.50;;;3.80;;
23175;SDS011;19910;42.652;23.332;2022-08-19T01:24:20;5.47;;;4.28;;
23175;SDS011;19910;42.652;23.332;2022-08-19T01:26:48;6.43;;;4.03;;
23175;SDS011;19910;42.652;23.332;2022-08-19T01:29:14;5.85;;;3.72;;
23175;SDS011;19910;42.652;23.332;2022-08-19T01:31:41;5.07;;;3.95;;
23175;SDS011;19910;42.652;23.332;2022-08-19T01:34:08;4.63;;;3.80;;
23175;SDS011;19910;42.652;23.332;2022-08-19T01:36:36;6.20;;;4.68;;
23175;SDS011;19910;42.652;23.332;2022-08-19T01:39:08;5.85;;;4.63;;
23175;SDS011;19910;42.652;23.332;2022-08-19T01:41:38;9.95;;;4.43;;
23175;SDS011;19910;42.652;23.332;2022-08-19T01:44:06;9.38;;;4.65;;
23175;SDS011;19910;42.652;23.332;2022-08-19T01:46:34;7.95;;;4.90;;
23175;SDS011;19910;42.652;23.332;2022-08-19T01:49:02;5.05;;;4.07;;
23175;SDS011;19910;42.652;23.332;2022-08-19T01:51:31;9.60;;;4.63;;
23175;SDS011;19910;42.652;23.332;2022-08-19T01:53:58;7.57;;;4.63;;
23175;SDS011;19910;42.652;23.332;2022-08-19T01:56:25;6.38;;;4.25;;
23175;SDS011;19910;42.652;23.332;2022-08-19T01:58:54;5.72;;;4.15;;
23175;SDS011;19910;42.652;23.332;2022-08-19T02:01:24;5.85;;;4.22;;
23175;SDS011;19910;42.652;23.332;2022-08-19T02:03:51;6.63;;;4.70;;
23175;SDS011;19910;42.652;23.332;2022-08-19T02:06:19;5.10;;;4.22;;
23175;SDS011;19910;42.652;23.332;2022-08-19T02:08:46;6.18;;;4.30;;
23175;SDS011;19910;42.652;23.332;2022-08-19T02:11:18;5.50;;;4.00;;
23175;SDS011;19910;42.652;23.332;2022-08-19T02:13:47;7.40;;;4.97;;
23175;SDS011;19910;42.652;23.332;2022-08-19T02:16:17;6.32;;;4.68;;
23175;SDS011;19910;42.652;23.332;2022-08-19T02:18:45;6.30;;;4.70;;
23175;SDS011;19910;42.652;23.332;2022-08-19T02:21:12;8.80;;;5.05;;
23175;SDS011;19910;42.652;23.332;2022-08-19T02:23:39;8.25;;;4.72;;
23175;SDS011;19910;42.652;23.332;2022-08-19T02:26:06;7.03;;;4.35;;
23175;SDS011;19910;42.652;23.332;2022-08-19T02:28:33;5.85;;;4.32;;
23175;SDS011;19910;42.652;23.332;2022-08-19T02:31:01;6.60;;;4.32;;
23175;SDS011;19910;42.652;23.332;2022-08-19T02:33:30;5.72;;;4.07;;
23175;SDS011;19910;42.652;23.332;2022-08-19T02:35:57;5.80;;;3.95;;
23175;SDS011;19910;42.652;23.332;2022-08-19T02:38:23;9.80;;;4.43;;
23175;SDS011;19910;42.652;23.332;2022-08-19T02:40:52;7.40;;;3.95;;
23175;SDS011;19910;42.652;23.332;2022-08-19T02:43:22;7.30;;;4.80;;
23175;SDS011;19910;42.652;23.332;2022-08-19T02:45:51;8.18;;;4.55;;
23175;SDS011;19910;42.652;23.332;2022-08-19T02:48:19;7.80;;;4.05;;
23175;SDS011;19910;42.652;23.332;2022-08-19T02:50:49;5.65;;;4.50;;
23175;SDS011;19910;42.652;23.332;2022-08-19T02:53:19;7.10;;;4.80;;
23175;SDS011;19910;42.652;23.332;2022-08-19T02:55:47;9.20;;;4.32;;
23175;SDS011;19910;42.652;23.332;2022-08-19T02:58:15;6.95;;;4.57;;
23175;SDS011;19910;42.652;23.332;2022-08-19T03:00:42;6.22;;;4.50;;
23175;SDS011;19910;42.652;23.332;2022-08-19T03:03:10;9.73;;;4.82;;
23175;SDS011;19910;42.652;23.332;2022-08-19T03:05:37;6.28;;;4.43;;
23175;SDS011;19910;42.652;23.332;2022-08-19T03:08:05;7.70;;;4.70;;
23175;SDS011;19910;42.652;23.332;2022-08-19T03:10:33;5.63;;;4.20;;
23175;SDS011;19910;42.652;23.332;2022-08-19T03:13:07;9.98;;;4.63;;
23175;SDS011;19910;42.652;23.332;2022-08-19T03:15:33;6.97;;;4.18;;
23175;SDS011;19910;42.652;23.332;2022-08-19T03:18:01;7.03;;;4.50;;
23175;SDS011;19910;42.652;23.332;2022-08-19T03:20:27;5.97;;;4.38;;
23175;SDS011;19910;42.652;23.332;2022-08-19T03:22:54;5.53;;;4.53;;
23175;SDS011;19910;42.652;23.332;2022-08-19T03:25:22;6.85;;;4.43;;
23175;SDS011;19910;42.652;23.332;2022-08-19T03:27:49;13.48;;;4.35;;
23175;SDS011;19910;42.652;23.332;2022-08-19T03:30:16;5.93;;;4.00;;
23175;SDS011;19910;42.652;23.332;2022-08-19T03:32:43;6.38;;;4.00;;
23175;SDS011;19910;42.652;23.332;2022-08-19T03:35:10;6.03;;;4.18;;
23175;SDS011;19910;42.652;23.332;2022-08-19T03:37:37;6.78;;;4.47;;
23175;SDS011;19910;42.652;23.332;2022-08-19T03:40:04;6.05;;;4.65;;
23175;SDS011;19910;42.652;23.332;2022-08-19T03:42:33;5.75;;;4.10;;
23175;SDS011;19910;42.652;23.332;2022-08-19T03:45:00;6.00;;;4.53;;
23175;SDS011;19910;42.652;23.332;2022-08-19T03:47:26;6.50;;;4.45;;
23175;SDS011;19910;42.652;23.332;2022-08-19T03:49:53;8.07;;;5.03;;
23175;SDS011;19910;42.652;23.332;2022-08-19T03:52:20;5.18;;;3.55;;
23175;SDS011;19910;42.652;23.332;2022-08-19T03:54:47;7.80;;;4.30;;
23175;SDS011;19910;42.652;23.332;2022-08-19T03:57:14;5.72;;;4.28;;
23175;SDS011;19910;42.652;23.332;2022-08-19T03:59:42;6.82;;;4.18;;
23175;SDS011;19910;42.652;23.332;2022-08-19T04:02:10;5.13;;;3.88;;
23175;SDS011;19910;42.652;23.332;2022-08-19T04:04:39;6.13;;;5.13;;
23175;SDS011;19910;42.652;23.332;2022-08-19T04:07:08;7.15;;;5.07;;
23175;SDS011;19910;42.652;23.332;2022-08-19T04:09:35;10.52;;;6.32;;
23175;SDS011;19910;42.652;23.332;2022-08-19T04:12:03;6.15;;;5.13;;
23175;SDS011;19910;42.652;23.332;2022-08-19T04:14:31;6.85;;;4.72;;
23175;SDS011;19910;42.652;23.332;2022-08-19T04:17:00;7.28;;;5.32;;
23175;SDS011;19910;42.652;23.332;2022-08-19T04:19:30;6.18;;;4.95;;
23175;SDS011;19910;42.652;23.332;2022-08-19T04:21:57;6.68;;;5.40;;
23175;SDS011;19910;42.652;23.332;2022-08-19T04:24:24;6.55;;;5.30;;
23175;SDS011;19910;42.652;23.332;2022-08-19T04:26:51;5.80;;;4.82;;
23175;SDS011;19910;42.652;23.332;2022-08-19T04:29:20;7.63;;;5.75;;
23175;SDS011;19910;42.652;23.332;2022-08-19T04:31:50;5.70;;;5.10;;
23175;SDS011;19910;42.652;23.332;2022-08-19T04:34:20;7.50;;;3.95;;
23175;SDS011;19910;42.652;23.332;2022-08-19T04:36:49;5.53;;;4.47;;
23175;SDS011;19910;42.652;23.332;2022-08-19T04:39:17;5.72;;;4.70;;
23175;SDS011;19910;42.652;23.332;2022-08-19T04:41:46;8.82;;;4.32;;
23175;SDS011;19910;42.652;23.332;2022-08-19T04:44:31;7.80;;;4.97;;
23175;SDS011;19910;42.652;23.332;2022-08-19T04:46:58;9.13;;;5.63;;
23175;SDS011;19910;42.652;23.332;2022-08-19T04:49:27;5.85;;;5.25;;
23175;SDS011;19910;42.652;23.332;2022-08-19T04:51:55;7.13;;;5.75;;
23175;SDS011;19910;42.652;23.332;2022-08-19T04:54:22;7.50;;;6.00;;
23175;SDS011;19910;42.652;23.332;2022-08-19T04:56:51;8.35;;;5.65;;
23175;SDS011;19910;42.652;23.332;2022-08-19T04:59:19;8.25;;;5.50;;
23175;SDS011;19910;42.652;23.332;2022-08-19T05:01:47;7.45;;;5.93;;
23175;SDS011;19910;42.652;23.332;2022-08-19T05:04:15;8.05;;;5.95;;
23175;SDS011;19910;42.652;23.332;2022-08-19T05:06:45;7.75;;;6.50;;
23175;SDS011;19910;42.652;23.332;2022-08-19T05:09:13;7.35;;;6.32;;
23175;SDS011;19910;42.652;23.332;2022-08-19T05:11:41;9.63;;;6.38;;
23175;SDS011;19910;42.652;23.332;2022-08-19T05:14:09;10.45;;;6.75;;
23175;SDS011;19910;42.652;23.332;2022-08-19T05:16:37;7.43;;;6.35;;
23175;SDS011;19910;42.652;23.332;2022-08-19T05:19:04;7.20;;;5.97;;
23175;SDS011;19910;42.652;23.332;2022-08-19T05:21:50;8.50;;;6.75;;
23175;SDS011;19910;42.652;23.332;2022-08-19T05:24:34;7.38;;;6.57;;
23175;SDS011;19910;42.652;23.332;2022-08-19T05:27:02;7.35;;;6.38;;
23175;SDS011;19910;42.652;23.332;2022-08-19T05:29:30;7.22;;;6.43;;
23175;SDS011;19910;42.652;23.332;2022-08-19T05:32:00;16.83;;;7.07;;
23175;SDS011;19910;42.652;23.332;2022-08-19T05:34:27;6.63;;;5.93;;
23175;SDS011;19910;42.652;23.332;2022-08-19T05:36:56;7.18;;;5.85;;
23175;SDS011;19910;42.652;23.332;2022-08-19T05:39:26;7.68;;;6.40;;
23175;SDS011;19910;42.652;23.332;2022-08-19T05:41:57;8.00;;;6.47;;
23175;SDS011;19910;42.652;23.332;2022-08-19T05:44:26;8.02;;;6.30;;
23175;SDS011;19910;42.652;23.332;2022-08-19T05:46:56;10.10;;;6.15;;
23175;SDS011;19910;42.652;23.332;2022-08-19T05:49:23;7.28;;;6.57;;
23175;SDS011;19910;42.652;23.332;2022-08-19T05:51:50;7.35;;;5.82;;
23175;SDS011;19910;42.652;23.332;2022-08-19T05:54:19;5.70;;;5.18;;
23175;SDS011;19910;42.652;23.332;2022-08-19T05:56:46;5.82;;;5.22;;
23175;SDS011;19910;42.652;23.332;2022-08-19T05:59:14;5.82;;;5.22;;
23175;SDS011;19910;42.652;23.332;2022-08-19T06:01:42;5.93;;;4.75;;
23175;SDS011;19910;42.652;23.332;2022-08-19T06:04:11;6.28;;;4.68;;
23175;SDS011;19910;42.652;23.332;2022-08-19T06:06:40;6.32;;;4.90;;
23175;SDS011;19910;42.652;23.332;2022-08-19T06:09:07;5.75;;;4.80;;
23175;SDS011;19910;42.652;23.332;2022-08-19T06:11:37;5.05;;;4.55;;
23175;SDS011;19910;42.652;23.332;2022-08-19T06:14:06;5.95;;;4.63;;
23175;SDS011;19910;42.652;23.332;2022-08-19T06:16:36;6.03;;;4.50;;
23175;SDS011;19910;42.652;23.332;2022-08-19T06:19:05;6.07;;;5.45;;
23175;SDS011;19910;42.652;23.332;2022-08-19T06:21:35;6.40;;;5.50;;
23175;SDS011;19910;42.652;23.332;2022-08-19T06:24:04;6.43;;;5.30;;
23175;SDS011;19910;42.652;23.332;2022-08-19T06:26:33;6.63;;;5.45;;
23175;SDS011;19910;42.652;23.332;2022-08-19T06:29:02;5.25;;;4.75;;
23175;SDS011;19910;42.652;23.332;2022-08-19T06:31:32;6.20;;;4.63;;
23175;SDS011;19910;42.652;23.332;2022-08-19T06:34:00;6.95;;;4.80;;
23175;SDS011;19910;42.652;23.332;2022-08-19T06:36:29;7.22;;;5.90;;
23175;SDS011;19910;42.652;23.332;2022-08-19T06:39:00;6.25;;;5.00;;
23175;SDS011;19910;42.652;23.332;2022-08-19T06:41:29;10.52;;;5.60;;
23175;SDS011;19910;42.652;23.332;2022-08-19T06:43:56;6.18;;;5.57;;
23175;SDS011;19910;42.652;23.332;2022-08-19T06:46:25;6.53;;;5.13;;
23175;SDS011;19910;42.652;23.332;2022-08-19T06:48:52;7.57;;;4.82;;
23175;SDS011;19910;42.652;23.332;2022-08-19T06:51:20;7.35;;;5.75;;
23175;SDS011;19910;42.652;23.332;2022-08-19T06:53:49;6.45;;;5.22;;
23175;SDS011;19910;42.652;23.332;2022-08-19T06:56:18;8.15;;;5.35;;
23175;SDS011;19910;42.652;23.332;2022-08-19T06:58:47;8.10;;;5.10;;
23175;SDS011;19910;42.652;23.332;2022-08-19T07:01:18;6.93;;;5.28;;
23175;SDS011;19910;42.652;23.332;2022-08-19T07:03:48;6.78;;;5.15;;
23175;SDS011;19910;42.652;23.332;2022-08-19T07:06:16;6.20;;;5.38;;
23175;SDS011;19910;42.652;23.332;2022-08-19T07:08:44;6.32;;;5.18;;
23175;SDS011;19910;42.652;23.332;2022-08-19T07:11:14;6.40;;;5.05;;
23175;SDS011;19910;42.652;23.332;2022-08-19T07:13:44;6.22;;;5.03;;
23175;SDS011;19910;42.652;23.332;2022-08-19T07:16:14;6.70;;;5.57;;
23175;SDS011;19910;42.652;23.332;2022-08-19T07:18:44;9.35;;;5.47;;
23175;SDS011;19910;42.652;23.332;2022-08-19T07:21:14;11.00;;;6.30;;
23175;SDS011;19910;42.652;23.332;2022-08-19T07:23:43;7.88;;;5.82;;
23175;SDS011;19910;42.652;23.332;2022-08-19T07:26:12;11.68;;;5.95;;
23175;SDS011;19910;42.652;23.332;2022-08-19T07:28:41;8.60;;;5.90;;
23175;SDS011;19910;42.652;23.332;2022-08-19T07:31:09;10.20;;;6.00;;
23175;SDS011;19910;42.652;23.332;2022-08-19T07:33:38;8.38;;;5.78;;
23175;SDS011;19910;42.652;23.332;2022-08-19T07:36:07;9.80;;;6.10;;
23175;SDS011;19910;42.652;23.332;2022-08-19T07:38:38;7.45;;;5.60;;
23175;SDS011;19910;42.652;23.332;2022-08-19T07:41:08;6.72;;;5.35;;
23175;SDS011;19910;42.652;23.332;2022-08-19T07:43:35;9.38;;;5.80;;
23175;SDS011;19910;42.652;23.332;2022-08-19T07:46:03;7.15;;;5.50;;
23175;SDS011;19910;42.652;23.332;2022-08-19T07:48:30;7.85;;;5.00;;
23175;SDS011;19910;42.652;23.332;2022-08-19T07:50:58;6.97;;;5.25;;
23175;SDS011;19910;42.652;23.332;2022-08-19T07:53:27;9.80;;;5.57;;
23175;SDS011;19910;42.652;23.332;2022-08-19T07:55:56;8.32;;;5.60;;
23175;SDS011;19910;42.652;23.332;2022-08-19T07:58:24;14.85;;;5.10;;
23175;SDS011;19910;42.652;23.332;2022-08-19T08:00:52;6.53;;;5.18;;
23175;SDS011;19910;42.652;23.332;2022-08-19T08:03:19;9.07;;;5.50;;
23175;SDS011;19910;42.652;23.332;2022-08-19T08:06:08;6.20;;;5.18;;
23175;SDS011;19910;42.652;23.332;2022-08-19T08:08:53;7.38;;;5.60;;
23175;SDS011;19910;42.652;23.332;2022-08-19T08:11:45;10.25;;;5.20;;
23175;SDS011;19910;42.652;23.332;2022-08-19T08:14:15;11.15;;;5.85;;
23175;SDS011;19910;42.652;23.332;2022-08-19T08:16:43;8.20;;;5.50;;
23175;SDS011;19910;42.652;23.332;2022-08-19T08:19:11;7.88;;;5.25;;
23175;SDS011;19910;42.652;23.332;2022-08-19T08:21:40;6.35;;;4.95;;
23175;SDS011;19910;42.652;23.332;2022-08-19T08:24:08;7.75;;;5.03;;
23175;SDS011;19910;42.652;23.332;2022-08-19T08:26:35;6.78;;;5.15;;
23175;SDS011;19910;42.652;23.332;2022-08-19T08:29:04;6.05;;;4.90;;
23175;SDS011;19910;42.652;23.332;2022-08-19T08:31:32;6.68;;;4.90;;
23175;SDS011;19910;42.652;23.332;2022-08-19T08:33:59;6.20;;;5.25;;
23175;SDS011;19910;42.652;23.332;2022-08-19T08:36:26;5.55;;;4.82;;
23175;SDS011;19910;42.652;23.332;2022-08-19T08:38:53;6.55;;;4.63;;
23175;SDS011;19910;42.652;23.332;2022-08-19T08:41:22;9.20;;;4.78;;
23175;SDS011;19910;42.652;23.332;2022-08-19T08:43:55;5.78;;;4.60;;
23175;SDS011;19910;42.652;23.332;2022-08-19T08:46:25;8.02;;;4.10;;
23175;SDS011;19910;42.652;23.332;2022-08-19T08:48:57;5.40;;;4.00;;
23175;SDS011;19910;42.652;23.332;2022-08-19T08:51:32;4.28;;;3.50;;
23175;SDS011;19910;42.652;23.332;2022-08-19T08:54:04;3.90;;;3.30;;
23175;SDS011;19910;42.652;23.332;2022-08-19T08:56:34;4.93;;;3.78;;
23175;SDS011;19910;42.652;23.332;2022-08-19T08:59:01;4.38;;;3.05;;
23175;SDS011;19910;42.652;23.332;2022-08-19T09:01:35;3.35;;;3.05;;
23175;SDS011;19910;42.652;23.332;2022-08-19T09:04:02;4.50;;;3.45;;
23175;SDS011;19910;42.652;23.332;2022-08-19T09:06:32;5.68;;;3.90;;
23175;SDS011;19910;42.652;23.332;2022-08-19T09:09:11;5.45;;;4.15;;
23175;SDS011;19910;42.652;23.332;2022-08-19T09:11:47;4.32;;;3.92;;
23175;SDS011;19910;42.652;23.332;2022-08-19T09:14:27;5.18;;;3.47;;
23175;SDS011;19910;42.652;23.332;2022-08-19T09:17:04;5.25;;;3.80;;
23175;SDS011;19910;42.652;23.332;2022-08-19T09:19:32;4.65;;;4.00;;
23175;SDS011;19910;42.652;23.332;2022-08-19T09:22:00;3.50;;;3.15;;
23175;SDS011;19910;42.652;23.332;2022-08-19T09:24:27;5.75;;;3.30;;
23175;SDS011;19910;42.652;23.332;2022-08-19T09:26:54;3.20;;;2.90;;
23175;SDS011;19910;42.652;23.332;2022-08-19T09:29:21;5.10;;;3.70;;
23175;SDS011;19910;42.652;23.332;2022-08-19T09:31:48;3.72;;;3.30;;
23175;SDS011;19910;42.652;23.332;2022-08-19T09:34:16;4.45;;;3.40;;
23175;SDS011;19910;42.652;23.332;2022-08-19T09:36:44;3.90;;;3.38;;
23175;SDS011;19910;42.652;23.332;2022-08-19T09:39:12;3.78;;;3.25;;
23175;SDS011;19910;42.652;23.332;2022-08-19T09:41:39;9.38;;;3.45;;
23175;SDS011;19910;42.652;23.332;2022-08-19T09:44:05;5.90;;;3.58;;
23175;SDS011;19910;42.652;23.332;2022-08-19T09:46:32;3.60;;;3.20;;
23175;SDS011;19910;42.652;23.332;2022-08-19T09:48:59;3.60;;;3.08;;
23175;SDS011;19910;42.652;23.332;2022-08-19T09:51:28;3.80;;;2.95;;
23175;SDS011;19910;42.652;23.332;2022-08-19T09:53:55;3.67;;;3.35;;
23175;SDS011;19910;42.652;23.332;2022-08-19T09:56:27;4.25;;;3.45;;
23175;SDS011;19910;42.652;23.332;2022-08-19T09:58:54;4.47;;;2.80;;
23175;SDS011;19910;42.652;23.332;2022-08-19T10:01:21;4.18;;;3.10;;
23175;SDS011;19910;42.652;23.332;2022-08-19T10:03:50;3.90;;;3.30;;
23175;SDS011;19910;42.652;23.332;2022-08-19T10:06:19;5.68;;;3.53;;
23175;SDS011;19910;42.652;23.332;2022-08-19T10:08:47;4.60;;;3.70;;
23175;SDS011;19910;42.652;23.332;2022-08-19T10:11:16;5.60;;;3.13;;
23175;SDS011;19910;42.652;23.332;2022-08-19T10:13:44;4.85;;;3.42;;
23175;SDS011;19910;42.652;23.332;2022-08-19T10:16:12;4.70;;;2.97;;
23175;SDS011;19910;42.652;23.332;2022-08-19T10:18:40;4.10;;;3.28;;
23175;SDS011;19910;42.652;23.332;2022-08-19T10:21:09;4.10;;;3.70;;
23175;SDS011;19910;42.652;23.332;2022-08-19T10:23:39;5.25;;;3.90;;
23175;SDS011;19910;42.652;23.332;2022-08-19T10:26:10;4.85;;;3.78;;
23175;SDS011;19910;42.652;23.332;2022-08-19T10:28:38;4.65;;;3.50;;
23175;SDS011;19910;42.652;23.332;2022-08-19T10:31:07;4.10;;;3.70;;
23175;SDS011;19910;42.652;23.332;2022-08-19T10:33:35;3.85;;;3.45;;
23175;SDS011;19910;42.652;23.332;2022-08-19T10:36:03;4.00;;;3.60;;
23175;SDS011;19910;42.652;23.332;2022-08-19T10:38:32;8.10;;;5.40;;
23175;SDS011;19910;42.652;23.332;2022-08-19T10:41:05;5.40;;;3.95;;
23175;SDS011;19910;42.652;23.332;2022-08-19T10:43:34;4.10;;;3.75;;
23175;SDS011;19910;42.652;23.332;2022-08-19T10:46:03;4.68;;;3.90;;
23175;SDS011;19910;42.652;23.332;2022-08-19T10:48:31;4.28;;;3.72;;
23175;SDS011;19910;42.652;23.332;2022-08-19T10:50:58;3.58;;;3.28;;
23175;SDS011;19910;42.652;23.332;2022-08-19T10:53:42;5.38;;;3.83;;
23175;SDS011;19910;42.652;23.332;2022-08-19T10:56:09;3.97;;;3.45;;
23175;SDS011;19910;42.652;23.332;2022-08-19T10:58:55;6.68;;;3.85;;
23175;SDS011;19910;42.652;23.332;2022-08-19T11:01:23;4.50;;;3.45;;
23175;SDS011;19910;42.652;23.332;2022-08-19T11:03:49;9.20;;;5.55;;
23175;SDS011;19910;42.652;23.332;2022-08-19T11:06:17;6.55;;;3.97;;
23175;SDS011;19910;42.652;23.332;2022-08-19T11:08:44;4.40;;;3.83;;
23175;SDS011;19910;42.652;23.332;2022-08-19T11:11:11;4.45;;;3.70;;
23175;SDS011;19910;42.652;23.332;2022-08-19T11:13:39;4.38;;;3.53;;
23175;SDS011;19910;42.652;23.332;2022-08-19T11:16:11;4.47;;;3.67;;
23175;SDS011;19910;42.652;23.332;2022-08-19T11:18:41;6.30;;;3.72;;
23175;SDS011;19910;42.652;23.332;2022-08-19T11:21:11;5.32;;;3.53;;
23175;SDS011;19910;42.652;23.332;2022-08-19T11:23:42;4.00;;;3.58;;
23175;SDS011;19910;42.652;23.332;2022-08-19T11:26:10;4.10;;;3.65;;
23175;SDS011;19910;42.652;23.332;2022-08-19T11:28:37;4.00;;;3.60;;
23175;SDS011;19910;42.652;23.332;2022-08-19T11:31:04;4.45;;;3.78;;
23175;SDS011;19910;42.652;23.332;2022-08-19T11:33:37;7.30;;;3.80;;
23175;SDS011;19910;42.652;23.332;2022-08-19T11:36:04;4.32;;;3.50;;
23175;SDS011;19910;42.652;23.332;2022-08-19T11:38:32;7.07;;;4.13;;
23175;SDS011;19910;42.652;23.332;2022-08-19T11:41:01;4.80;;;3.85;;
23175;SDS011;19910;42.652;23.332;2022-08-19T11:43:30;4.45;;;4.03;;
23175;SDS011;19910;42.652;23.332;2022-08-19T11:45:57;5.45;;;4.18;;
23175;SDS011;19910;42.652;23.332;2022-08-19T11:48:26;5.63;;;4.05;;
23175;SDS011;19910;42.652;23.332;2022-08-19T11:50:52;4.30;;;3.90;;
23175;SDS011;19910;42.652;23.332;2022-08-19T11:53:21;4.88;;;4.30;;
23175;SDS011;19910;42.652;23.332;2022-08-19T11:55:49;6.18;;;3.78;;
23175;SDS011;19910;42.652;23.332;2022-08-19T11:58:17;6.28;;;4.32;;
23175;SDS011;19910;42.652;23.332;2022-08-19T12:00:44;6.07;;;3.90;;
23175;SDS011;19910;42.652;23.332;2022-08-19T12:03:11;4.40;;;4.00;;
23175;SDS011;19910;42.652;23.332;2022-08-19T12:05:40;6.90;;;4.00;;
23175;SDS011;19910;42.652;23.332;2022-08-19T12:08:08;4.07;;;3.67;;
23175;SDS011;19910;42.652;23.332;2022-08-19T12:10:35;4.82;;;4.30;;
23175;SDS011;19910;42.652;23.332;2022-08-19T12:13:02;5.22;;;4.00;;
23175;SDS011;19910;42.652;23.332;2022-08-19T12:15:30;3.78;;;3.47;;
23175;SDS011;19910;42.652;23.332;2022-08-19T12:17:56;5.32;;;3.75;;
23175;SDS011;19910;42.652;23.332;2022-08-19T12:20:23;12.32;;;4.43;;
23175;SDS011;19910;42.652;23.332;2022-08-19T12:22:52;4.57;;;4.15;;
23175;SDS011;19910;42.652;23.332;2022-08-19T12:25:19;4.80;;;4.00;;
23175;SDS011;19910;42.652;23.332;2022-08-19T12:27:46;4.13;;;3.72;;
23175;SDS011;19910;42.652;23.332;2022-08-19T12:30:15;4.68;;;4.07;;
23175;SDS011;19910;42.652;23.332;2022-08-19T12:32:42;6.18;;;4.10;;
23175;SDS011;19910;42.652;23.332;2022-08-19T12:35:08;5.57;;;4.10;;
23175;SDS011;19910;42.652;23.332;2022-08-19T12:37:37;4.63;;;4.15;;
23175;SDS011;19910;42.652;23.332;2022-08-19T12:40:11;4.80;;;4.07;;
23175;SDS011;19910;42.652;23.332;2022-08-19T12:42:39;6.32;;;3.83;;
23175;SDS011;19910;42.652;23.332;2022-08-19T12:45:08;4.15;;;3.75;;
23175;SDS011;19910;42.652;23.332;2022-08-19T12:47:36;5.20;;;4.03;;
23175;SDS011;19910;42.652;23.332;2022-08-19T12:50:03;5.97;;;4.07;;
23175;SDS011;19910;42.652;23.332;2022-08-19T12:52:34;4.65;;;4.25;;
23175;SDS011;19910;42.652;23.332;2022-08-19T12:55:03;4.65;;;4.00;;
23175;SDS011;19910;42.652;23.332;2022-08-19T12:57:33;4.82;;;3.95;;
23175;SDS011;19910;42.652;23.332;2022-08-19T13:00:01;5.88;;;4.13;;
23175;SDS011;19910;42.652;23.332;2022-08-19T13:02:32;4.43;;;3.90;;
23175;SDS011;19910;42.652;23.332;2022-08-19T13:05:00;5.10;;;4.10;;
23175;SDS011;19910;42.652;23.332;2022-08-19T13:07:27;5.88;;;3.75;;
23175;SDS011;19910;42.652;23.332;2022-08-19T13:09:53;6.40;;;4.18;;
23175;SDS011;19910;42.652;23.332;2022-08-19T13:12:20;4.35;;;3.78;;
23175;SDS011;19910;42.652;23.332;2022-08-19T13:14:51;5.32;;;3.70;;
23175;SDS011;19910;42.652;23.332;2022-08-19T13:17:17;7.25;;;3.90;;
23175;SDS011;19910;42.652;23.332;2022-08-19T13:19:44;5.53;;;4.20;;
23175;SDS011;19910;42.652;23.332;2022-08-19T13:22:11;5.70;;;3.85;;
23175;SDS011;19910;42.652;23.332;2022-08-19T13:24:38;5.10;;;4.05;;
23175;SDS011;19910;42.652;23.332;2022-08-19T13:27:05;3.85;;;3.42;;
23175;SDS011;19910;42.652;23.332;2022-08-19T13:29:32;5.25;;;3.97;;
23175;SDS011;19910;42.652;23.332;2022-08-19T13:32:20;5.57;;;4.30;;
23175;SDS011;19910;42.652;23.332;2022-08-19T13:35:05;4.53;;;3.90;;
23175;SDS011;19910;42.652;23.332;2022-08-19T13:37:32;4.43;;;3.85;;
23175;SDS011;19910;42.652;23.332;2022-08-19T13:40:08;7.07;;;3.97;;
23175;SDS011;19910;42.652;23.332;2022-08-19T13:42:40;8.48;;;4.25;;
23175;SDS011;19910;42.652;23.332;2022-08-19T13:45:07;5.43;;;3.75;;
23175;SDS011;19910;42.652;23.332;2022-08-19T13:47:37;5.28;;;3.83;;
23175;SDS011;19910;42.652;23.332;2022-08-19T13:50:09;5.60;;;3.90;;
23175;SDS011;19910;42.652;23.332;2022-08-19T13:52:37;4.90;;;4.35;;
23175;SDS011;19910;42.652;23.332;2022-08-19T13:55:04;4.47;;;3.70;;
23175;SDS011;19910;42.652;23.332;2022-08-19T13:57:32;4.72;;;4.20;;
23175;SDS011;19910;42.652;23.332;2022-08-19T13:59:59;5.40;;;4.28;;
23175;SDS011;19910;42.652;23.332;2022-08-19T14:02:26;8.02;;;4.13;;
23175;SDS011;19910;42.652;23.332;2022-08-19T14:04:55;5.28;;;4.40;;
23175;SDS011;19910;42.652;23.332;2022-08-19T14:07:22;4.57;;;4.00;;
23175;SDS011;19910;42.652;23.332;2022-08-19T14:09:49;5.15;;;4.32;;
23175;SDS011;19910;42.652;23.332;2022-08-19T14:12:18;5.20;;;4.05;;
23175;SDS011;19910;42.652;23.332;2022-08-19T14:14:45;5.75;;;4.35;;
23175;SDS011;19910;42.652;23.332;2022-08-19T14:17:13;4.78;;;4.28;;
23175;SDS011;19910;42.652;23.332;2022-08-19T14:19:40;4.93;;;4.38;;
23175;SDS011;19910;42.652;23.332;2022-08-19T14:22:09;5.53;;;4.45;;
23175;SDS011;19910;42.652;23.332;2022-08-19T14:24:36;4.50;;;4.00;;
23175;SDS011;19910;42.652;23.332;2022-08-19T14:27:05;5.78;;;4.22;;
23175;SDS011;19910;42.652;23.332;2022-08-19T14:29:32;6.22;;;4.10;;
23175;SDS011;19910;42.652;23.332;2022-08-19T14:31:59;5.65;;;4.38;;
23175;SDS011;19910;42.652;23.332;2022-08-19T14:34:26;5.82;;;4.70;;
23175;SDS011;19910;42.652;23.332;2022-08-19T14:36:53;4.95;;;4.45;;
23175;SDS011;19910;42.652;23.332;2022-08-19T14:39:21;5.25;;;4.45;;
23175;SDS011;19910;42.652;23.332;2022-08-19T14:41:48;5.35;;;4.45;;